createdAt,value
2022-10-29T00:04:34.971Z,13.93
2022-10-29T00:09:28.848Z,13.85
2022-10-29T00:14:22.793Z,12.38
2022-10-29T00:16:49.580Z,11.45
2022-10-29T00:21:43.176Z,11.45
2022-10-29T00:26:37.368Z,11.85
2022-10-29T00:29:04.180Z,16.10
2022-10-29T00:33:58.287Z,10.98
2022-10-29T00:38:53.916Z,14.00
2022-10-29T00:41:23.446Z,11.02
2022-10-29T00:43:52.920Z,13.98
2022-10-29T00:46:26.641Z,10.18
2022-10-29T00:48:55.463Z,14.60
2022-10-29T00:51:22.899Z,11.95
2022-10-29T00:53:55.758Z,14.75
2022-10-29T00:56:25.388Z,11.02
2022-10-29T00:58:52.825Z,8.15
2022-10-29T01:01:20.108Z,10.93
2022-10-29T01:03:48.217Z,11.43
2022-10-29T01:06:15.278Z,12.63
2022-10-29T01:08:42.187Z,11.27
2022-10-29T01:11:21.437Z,16.13
2022-10-29T01:14:07.071Z,13.45
2022-10-29T01:16:59.993Z,13.38
2022-10-29T01:19:52.987Z,11.43
2022-10-29T01:22:43.008Z,15.80
2022-10-29T01:25:22.608Z,9.70
2022-10-29T01:27:57.373Z,13.18
2022-10-29T01:30:42.781Z,17.15
2022-10-29T01:33:23.497Z,17.00
2022-10-29T01:36:11.887Z,14.70
2022-10-29T01:38:43.793Z,15.13
2022-10-29T01:41:40.325Z,13.82
2022-10-29T01:44:26.891Z,11.15
2022-10-29T01:46:57.987Z,10.00
2022-10-29T01:49:33.278Z,12.18
2022-10-29T01:52:02.968Z,13.43
2022-10-29T01:54:29.754Z,11.60
2022-10-29T01:56:58.130Z,11.43
2022-10-29T01:59:35.928Z,15.45
2022-10-29T02:02:25.691Z,11.88
2022-10-29T02:05:09.456Z,11.20
2022-10-29T02:07:49.625Z,10.27
2022-10-29T02:10:19.165Z,16.17
2022-10-29T02:12:47.854Z,18.27
2022-10-29T02:15:30.223Z,14.15
2022-10-29T02:18:02.336Z,11.70
2022-10-29T02:20:29.582Z,13.68
2022-10-29T02:22:56.565Z,13.65
2022-10-29T02:25:23.897Z,16.48
2022-10-29T02:27:50.809Z,13.85
2022-10-29T02:30:17.688Z,11.68
2022-10-29T02:35:11.297Z,16.05
2022-10-29T02:40:05.379Z,13.32
2022-10-29T02:42:32.180Z,13.77
2022-10-29T02:47:25.634Z,14.38
2022-10-29T02:52:19.415Z,12.48
2022-10-29T02:54:46.310Z,13.45
2022-10-29T02:57:13.124Z,13.82
2022-10-29T02:59:39.956Z,12.00
2022-10-29T03:02:06.921Z,11.20
2022-10-29T03:04:33.915Z,10.77
2022-10-29T03:09:28.480Z,14.98
2022-10-29T03:11:55.249Z,11.52
2022-10-29T03:14:22.216Z,13.55
2022-10-29T03:19:15.853Z,14.63
2022-10-29T03:24:09.434Z,13.65
2022-10-29T03:26:36.254Z,16.85
2022-10-29T03:29:03.075Z,18.02
2022-10-29T03:33:56.564Z,15.10
2022-10-29T03:36:23.657Z,13.70
2022-10-29T03:38:50.704Z,11.65
2022-10-29T03:43:44.283Z,12.75
2022-10-29T03:46:11.178Z,13.15
2022-10-29T03:48:38.021Z,12.43
2022-10-29T03:53:36.866Z,12.70
2022-10-29T03:56:04.821Z,13.05
2022-10-29T03:58:32.610Z,13.20
2022-10-29T04:01:01.395Z,16.20
2022-10-29T04:03:30.635Z,13.43
2022-10-29T04:05:58.806Z,11.70
2022-10-29T04:08:26.055Z,13.57
2022-10-29T04:10:53.202Z,12.50
2022-10-29T04:13:21.109Z,9.07
2022-10-29T04:15:47.988Z,12.65
2022-10-29T04:21:31.233Z,13.15
2022-10-29T04:29:03.569Z,16.50
2022-10-29T04:31:30.699Z,10.48
2022-10-29T04:33:57.723Z,10.90
2022-10-29T04:36:24.847Z,16.83
2022-10-29T04:38:51.622Z,11.88
2022-10-29T04:41:18.411Z,10.77
2022-10-29T04:46:12.099Z,8.98
2022-10-29T04:48:39.036Z,12.35
2022-10-29T04:51:05.944Z,9.88
2022-10-29T04:56:01.326Z,18.90
2022-10-29T04:58:28.365Z,14.80
2022-10-29T05:01:01.670Z,12.35
2022-10-29T05:03:28.467Z,7.57
2022-10-29T05:05:55.230Z,13.82
2022-10-29T05:08:21.920Z,13.68
2022-10-29T05:10:49.799Z,12.93
2022-10-29T05:13:16.582Z,12.05
2022-10-29T05:15:43.418Z,8.23
2022-10-29T05:18:10.475Z,8.63
2022-10-29T05:20:37.207Z,11.85
2022-10-29T05:23:10.049Z,12.70
2022-10-29T05:25:38.731Z,15.18
2022-10-29T05:28:20.516Z,20.15
2022-10-29T05:30:48.806Z,10.52
2022-10-29T05:33:18.181Z,11.30
2022-10-29T05:35:45.508Z,12.13
2022-10-29T05:38:13.981Z,11.32
2022-10-29T05:40:42.771Z,11.93
2022-10-29T05:43:09.556Z,10.88
2022-10-29T05:45:36.286Z,13.93
2022-10-29T05:48:04.076Z,9.82
2022-10-29T05:50:32.775Z,13.07
2022-10-29T05:53:02.091Z,10.77
2022-10-29T05:55:29.778Z,13.70
2022-10-29T05:57:58.012Z,9.77
2022-10-29T06:00:26.687Z,10.57
2022-10-29T06:02:53.620Z,10.30
2022-10-29T06:05:20.579Z,9.70
2022-10-29T06:07:52.739Z,12.88
2022-10-29T06:10:19.401Z,12.38
2022-10-29T06:12:46.083Z,11.05
2022-10-29T06:15:12.782Z,10.30
2022-10-29T06:17:43.802Z,11.90
2022-10-29T06:20:12.382Z,14.43
2022-10-29T06:22:39.307Z,10.10
2022-10-29T06:27:32.899Z,12.50
2022-10-29T06:29:59.664Z,9.80
2022-10-29T06:32:26.333Z,15.23
2022-10-29T06:34:53.081Z,12.23
2022-10-29T06:37:19.760Z,10.18
2022-10-29T06:39:46.439Z,9.05
2022-10-29T06:42:13.105Z,9.68
2022-10-29T06:44:40.278Z,17.30
2022-10-29T06:49:33.637Z,12.95
2022-10-29T06:52:00.362Z,11.65
2022-10-29T06:54:27.039Z,12.15
2022-10-29T06:56:53.728Z,11.65
2022-10-29T06:59:20.430Z,12.20
2022-10-29T07:01:47.209Z,14.55
2022-10-29T07:04:13.950Z,14.18
2022-10-29T07:06:40.623Z,19.17
2022-10-29T07:09:07.354Z,19.85
2022-10-29T07:11:34.036Z,22.58
2022-10-29T07:14:01.126Z,15.63
2022-10-29T07:16:27.847Z,14.75
2022-10-29T07:18:54.618Z,14.30
2022-10-29T07:23:47.960Z,16.73
2022-10-29T07:26:14.653Z,15.35
2022-10-29T07:28:41.338Z,11.35
2022-10-29T07:31:08.050Z,12.20
2022-10-29T07:33:34.910Z,14.50
2022-10-29T07:38:28.442Z,14.15
2022-10-29T07:40:55.209Z,10.30
2022-10-29T07:43:23.362Z,14.75
2022-10-29T07:45:50.971Z,12.18
2022-10-29T07:48:19.396Z,14.27
2022-10-29T07:50:47.336Z,10.38
2022-10-29T07:53:14.450Z,12.80
2022-10-29T07:55:41.471Z,10.02
2022-10-29T07:58:11.929Z,12.57
2022-10-29T08:00:40.236Z,14.70
2022-10-29T08:03:07.792Z,8.88
2022-10-29T08:05:34.891Z,11.45
2022-10-29T08:08:01.917Z,14.75
2022-10-29T08:10:30.677Z,11.50
2022-10-29T08:13:00.130Z,11.02
2022-10-29T08:15:28.863Z,13.23
2022-10-29T08:17:56.215Z,11.02
2022-10-29T08:20:25.027Z,8.68
2022-10-29T08:22:51.797Z,10.80
2022-10-29T08:27:46.204Z,13.35
2022-10-29T08:30:14.492Z,10.50
2022-10-29T08:32:50.130Z,11.13
2022-10-29T08:35:16.823Z,9.82
2022-10-29T08:40:27.793Z,18.98
2022-10-29T08:42:54.809Z,10.45
2022-10-29T08:45:31.263Z,12.80
2022-10-29T08:48:20.299Z,12.20
2022-10-29T08:51:10.739Z,11.50
2022-10-29T08:53:42.594Z,10.57
2022-10-29T08:56:16.075Z,8.07
2022-10-29T08:59:13.437Z,12.32
2022-10-29T09:01:40.521Z,13.77
2022-10-29T09:04:30.005Z,14.05
2022-10-29T09:07:02.732Z,17.05
2022-10-29T09:09:42.501Z,12.77
2022-10-29T09:12:41.447Z,13.90
2022-10-29T09:15:24.052Z,13.10
2022-10-29T09:18:01.503Z,12.10
2022-10-29T09:20:51.279Z,13.63
2022-10-29T09:23:43.047Z,13.38
2022-10-29T09:26:49.139Z,14.07
2022-10-29T09:29:34.234Z,10.05
2022-10-29T09:32:06.020Z,15.00
2022-10-29T09:34:42.096Z,15.40
2022-10-29T09:37:53.402Z,12.80
2022-10-29T09:40:38.428Z,13.93
2022-10-29T09:43:34.269Z,11.80
2022-10-29T09:46:04.287Z,17.73
2022-10-29T09:48:38.395Z,14.07
2022-10-29T09:51:22.680Z,11.90
2022-10-29T09:53:51.183Z,13.40
2022-10-29T09:56:18.218Z,16.15
2022-10-29T09:58:49.178Z,17.63
2022-10-29T10:01:16.362Z,11.45
2022-10-29T10:03:47.651Z,13.55
2022-10-29T10:06:17.052Z,15.57
2022-10-29T10:09:04.868Z,12.90
2022-10-29T10:14:20.342Z,16.20
2022-10-29T10:16:56.961Z,10.15
2022-10-29T10:19:29.159Z,14.85
2022-10-29T10:22:02.101Z,10.38
2022-10-29T10:24:35.639Z,19.70
2022-10-29T10:27:29.385Z,15.68
2022-10-29T10:30:18.053Z,15.57
2022-10-29T10:32:45.257Z,10.27
2022-10-29T10:35:30.257Z,14.63
2022-10-29T10:37:59.955Z,17.88
2022-10-29T10:40:27.977Z,11.80
2022-10-29T10:42:55.912Z,10.27
2022-10-29T10:45:37.832Z,10.60
2022-10-29T10:48:10.444Z,10.95
2022-10-29T10:50:37.861Z,12.93
2022-10-29T10:53:17.367Z,13.40
2022-10-29T10:56:00.032Z,12.30
2022-10-29T10:58:40.537Z,9.75
2022-10-29T11:01:19.012Z,14.23
2022-10-29T11:03:49.072Z,9.60
2022-10-29T11:06:38.315Z,11.60
2022-10-29T11:09:39.743Z,12.02
2022-10-29T11:12:14.015Z,9.57
2022-10-29T11:14:47.307Z,11.60
2022-10-29T11:17:28.564Z,12.57
2022-10-29T11:20:03.678Z,11.48
2022-10-29T11:22:50.068Z,11.13
2022-10-29T11:25:29.508Z,11.52
2022-10-29T11:28:20.661Z,11.27
2022-10-29T11:30:56.627Z,10.00
2022-10-29T11:34:01.468Z,11.10
2022-10-29T11:37:15.019Z,11.85
2022-10-29T11:40:02.043Z,9.68
2022-10-29T11:45:31.854Z,9.55
2022-10-29T11:51:07.374Z,8.88
2022-10-29T11:53:45.007Z,15.65
2022-10-29T11:56:24.059Z,15.88
2022-10-29T11:59:02.062Z,14.48
2022-10-29T12:01:37.078Z,10.65
2022-10-29T12:04:21.397Z,11.68
2022-10-29T12:06:54.863Z,11.98
2022-10-29T12:09:57.649Z,14.68
2022-10-29T12:12:44.393Z,14.18
2022-10-29T12:15:48.684Z,14.20
2022-10-29T12:18:42.974Z,13.07
2022-10-29T12:21:50.981Z,17.13
2022-10-29T12:24:39.453Z,15.65
2022-10-29T12:27:52.206Z,13.35
2022-10-29T12:30:22.222Z,17.83
2022-10-29T12:33:04.230Z,14.77
2022-10-29T12:36:03.480Z,15.18
2022-10-29T12:41:34.675Z,13.27
2022-10-29T12:44:12.649Z,11.55
2022-10-29T12:46:57.987Z,13.13
2022-10-29T12:49:51.081Z,10.25
2022-10-29T12:52:44.125Z,14.65
2022-10-29T12:55:15.284Z,13.05
2022-10-29T12:57:45.529Z,15.13
2022-10-29T13:00:31.756Z,19.83
2022-10-29T13:02:59.367Z,20.80
2022-10-29T13:05:47.036Z,17.35
2022-10-29T13:11:00.491Z,15.40
2022-10-29T13:13:53.178Z,14.77
2022-10-29T13:16:25.880Z,19.75
2022-10-29T13:19:18.743Z,16.65
2022-10-29T13:22:08.984Z,16.98
2022-10-29T13:24:36.075Z,13.25
2022-10-29T13:27:27.752Z,11.82
2022-10-29T13:30:18.881Z,14.55
2022-10-29T13:32:45.670Z,15.45
2022-10-29T13:35:18.531Z,14.90
2022-10-29T13:41:48.796Z,17.20
2022-10-29T13:44:26.996Z,14.02
2022-10-29T13:47:03.020Z,16.77
2022-10-29T13:49:40.128Z,13.67
2022-10-29T13:52:19.894Z,14.30
2022-10-29T13:54:52.012Z,13.02
2022-10-29T13:57:22.879Z,14.23
2022-10-29T13:59:57.952Z,12.65
2022-10-29T14:02:34.173Z,17.98
2022-10-29T14:05:22.987Z,18.67
2022-10-29T14:07:49.867Z,15.23
2022-10-29T14:10:42.480Z,14.07
2022-10-29T14:13:29.756Z,12.77
2022-10-29T14:16:08.215Z,10.93
2022-10-29T14:18:46.511Z,11.10
2022-10-29T14:21:18.350Z,18.67
2022-10-29T14:24:00.387Z,14.73
2022-10-29T14:26:29.517Z,11.68
2022-10-29T14:28:57.392Z,16.83
2022-10-29T14:31:32.215Z,12.75
2022-10-29T14:34:01.745Z,13.48
2022-10-29T14:36:37.128Z,14.05
2022-10-29T14:39:13.240Z,12.23
2022-10-29T14:41:40.291Z,10.90
2022-10-29T14:44:26.912Z,11.73
2022-10-29T14:47:07.412Z,10.65
2022-10-29T14:49:39.140Z,11.32
2022-10-29T14:52:25.049Z,13.90
2022-10-29T14:54:53.296Z,11.30
2022-10-29T14:57:24.106Z,12.38
2022-10-29T14:59:58.307Z,9.55
2022-10-29T15:02:43.317Z,11.02
2022-10-29T15:06:05.810Z,12.75
2022-10-29T15:08:39.640Z,10.27
2022-10-29T15:11:39.810Z,9.60
2022-10-29T15:14:33.329Z,17.55
2022-10-29T15:17:01.251Z,16.33
2022-10-29T15:19:28.398Z,8.48
2022-10-29T15:21:55.326Z,9.10
2022-10-29T15:24:24.259Z,10.27
2022-10-29T15:26:55.146Z,10.95
2022-10-29T15:29:33.369Z,7.60
2022-10-29T15:32:04.401Z,15.48
2022-10-29T15:34:36.101Z,11.52
2022-10-29T15:37:18.240Z,12.07
2022-10-29T15:39:57.168Z,13.02
2022-10-29T15:42:26.950Z,13.00
2022-10-29T15:45:14.319Z,11.75
2022-10-29T15:47:48.346Z,13.98
2022-10-29T15:50:24.165Z,11.55
2022-10-29T15:53:01.891Z,10.95
2022-10-29T15:55:37.581Z,12.77
2022-10-29T15:58:16.553Z,13.23
2022-10-29T16:00:43.940Z,15.77
2022-10-29T16:03:21.324Z,21.17
2022-10-29T16:05:50.695Z,13.25
2022-10-29T16:08:41.655Z,15.30
2022-10-29T16:11:14.255Z,14.57
2022-10-29T16:13:41.556Z,13.65
2022-10-29T16:16:17.371Z,13.10
2022-10-29T16:18:49.128Z,13.18
2022-10-29T16:21:22.254Z,12.93
2022-10-29T16:23:49.514Z,15.90
2022-10-29T16:26:24.656Z,13.07
2022-10-29T16:28:54.826Z,12.23
2022-10-29T16:31:26.739Z,12.55
2022-10-29T16:33:56.679Z,14.68
2022-10-29T16:36:23.777Z,16.95
2022-10-29T16:38:50.807Z,18.55
2022-10-29T16:41:19.481Z,18.65
2022-10-29T16:43:47.260Z,22.35
2022-10-29T16:46:14.803Z,23.63
2022-10-29T16:48:41.799Z,22.95
2022-10-29T16:51:09.574Z,28.30
2022-10-29T16:53:36.561Z,33.83
2022-10-29T16:56:04.131Z,52.80
2022-10-29T16:58:31.397Z,38.08
2022-10-29T17:01:06.642Z,32.95
2022-10-29T17:04:01.342Z,35.65
2022-10-29T17:06:29.755Z,29.35
2022-10-29T17:08:56.735Z,25.48
2022-10-29T17:11:23.489Z,31.50
2022-10-29T17:16:18.866Z,25.05
2022-10-29T17:18:50.614Z,23.25
2022-10-29T17:21:18.197Z,25.05
2022-10-29T17:23:44.871Z,27.50
2022-10-29T17:26:11.848Z,29.30
2022-10-29T17:28:39.516Z,24.75
2022-10-29T17:31:07.662Z,23.42
2022-10-29T17:33:34.752Z,26.20
2022-10-29T17:36:07.529Z,22.00
2022-10-29T17:38:34.803Z,23.17
2022-10-29T17:41:01.709Z,26.75
2022-10-29T17:43:28.726Z,34.53
2022-10-29T17:45:55.583Z,53.63
2022-10-29T17:50:59.807Z,55.55
2022-10-29T17:53:28.598Z,46.92
2022-10-29T17:55:59.675Z,28.70
2022-10-29T17:58:26.851Z,35.22
2022-10-29T18:00:53.646Z,33.65
2022-10-29T18:05:47.131Z,21.95
2022-10-29T18:08:13.941Z,24.92
2022-10-29T18:13:07.326Z,24.80
2022-10-29T18:15:34.122Z,22.40
2022-10-29T18:20:27.699Z,19.77
2022-10-29T18:22:55.908Z,23.20
2022-10-29T18:25:22.961Z,18.35
2022-10-29T18:30:22.824Z,22.23
2022-10-29T18:32:49.724Z,23.30
2022-10-29T18:37:43.417Z,23.38
2022-10-29T18:42:37.387Z,22.85
2022-10-29T18:45:04.765Z,22.58
2022-10-29T18:47:31.664Z,21.02
2022-10-29T18:52:25.171Z,18.85
2022-10-29T18:57:19.505Z,25.00
2022-10-29T18:59:46.495Z,23.63
2022-10-29T19:04:40.191Z,23.55
2022-10-29T19:07:06.851Z,18.85
2022-10-29T19:12:00.645Z,25.17
2022-10-29T19:16:54.038Z,25.27
2022-10-29T19:19:22.953Z,23.73
2022-10-29T19:21:50.938Z,24.42
2022-10-29T19:24:17.782Z,20.70
2022-10-29T19:29:12.214Z,23.48
2022-10-29T19:31:39.107Z,27.13
2022-10-29T19:36:34.935Z,32.75
2022-10-29T19:39:02.070Z,36.30
2022-10-29T19:41:30.024Z,36.30
2022-10-29T19:44:01.165Z,33.92
2022-10-29T19:46:28.195Z,23.63
2022-10-29T19:48:56.298Z,17.95
2022-10-29T19:51:23.150Z,19.40
2022-10-29T19:56:19.493Z,17.50
2022-10-29T19:58:47.003Z,17.38
2022-10-29T20:01:17.334Z,16.30
2022-10-29T20:03:45.187Z,19.00
2022-10-29T20:06:12.874Z,14.45
2022-10-29T20:08:39.862Z,18.25
2022-10-29T20:11:07.130Z,33.30
2022-10-29T20:13:33.982Z,38.45
2022-10-29T20:16:07.523Z,24.83
2022-10-29T20:18:35.426Z,19.33
2022-10-29T20:21:02.365Z,17.83
2022-10-29T20:23:29.203Z,10.65
2022-10-29T20:25:55.986Z,11.52
2022-10-29T20:28:23.063Z,13.82
2022-10-29T20:30:50.137Z,16.73
2022-10-29T20:33:16.895Z,11.57
2022-10-29T20:38:10.462Z,12.77
2022-10-29T20:40:37.284Z,16.35
2022-10-29T20:43:04.094Z,13.25
2022-10-29T20:45:32.061Z,16.10
2022-10-29T20:48:02.449Z,14.13
2022-10-29T20:50:29.154Z,9.85
2022-10-29T20:52:55.859Z,12.95
2022-10-29T20:55:22.771Z,19.23
2022-10-29T21:00:16.253Z,12.93
2022-10-29T21:05:09.907Z,12.85
2022-10-29T21:07:38.070Z,13.63
2022-10-29T21:10:05.233Z,20.17
2022-10-29T21:12:34.355Z,21.38
2022-10-29T21:15:01.188Z,17.25
2022-10-29T21:19:54.508Z,14.65
2022-10-29T21:22:21.387Z,13.27
2022-10-29T21:27:14.957Z,14.27
2022-10-29T21:29:41.950Z,12.68
2022-10-29T21:32:12.745Z,14.40
2022-10-29T21:34:41.142Z,11.77
2022-10-29T21:37:07.830Z,14.38
2022-10-29T21:39:34.985Z,16.38
2022-10-29T21:42:01.799Z,13.80
2022-10-29T21:44:28.495Z,14.82
2022-10-29T21:46:55.242Z,12.23
2022-10-29T21:51:49.877Z,11.38
2022-10-29T21:54:16.904Z,11.25
2022-10-29T21:56:43.794Z,10.95
2022-10-29T22:01:37.343Z,13.23
2022-10-29T22:06:30.901Z,12.35
2022-10-29T22:08:59.732Z,14.52
2022-10-29T22:11:27.868Z,10.20
2022-10-29T22:13:55.192Z,14.32
2022-10-29T22:16:22.571Z,13.20
2022-10-29T22:18:52.119Z,8.95
2022-10-29T22:21:22.684Z,10.38
2022-10-29T22:23:54.564Z,11.13
2022-10-29T22:26:24.197Z,15.82
2022-10-29T22:28:51.019Z,12.38
2022-10-29T22:31:20.069Z,10.95
2022-10-29T22:33:47.382Z,14.35
2022-10-29T22:36:22.869Z,10.85
2022-10-29T22:38:57.695Z,11.15
2022-10-29T22:41:26.253Z,11.65
2022-10-29T22:43:53.325Z,13.90
2022-10-29T22:46:21.575Z,9.18
2022-10-29T22:48:48.813Z,9.48
2022-10-29T22:51:23.015Z,12.52
2022-10-29T22:53:51.092Z,10.65
2022-10-29T22:56:26.269Z,10.35
2022-10-29T22:58:53.441Z,12.02
2022-10-29T23:01:23.115Z,11.75
2022-10-29T23:03:50.512Z,14.02
2022-10-29T23:06:19.470Z,11.23
2022-10-29T23:08:47.374Z,11.88
2022-10-29T23:11:22.572Z,13.35
2022-10-29T23:13:56.613Z,14.23
2022-10-29T23:16:25.175Z,10.60
2022-10-29T23:19:04.864Z,23.45
2022-10-29T23:21:32.480Z,15.88
2022-10-29T23:23:59.585Z,12.48
2022-10-29T23:26:27.289Z,18.27
2022-10-29T23:28:54.058Z,12.43
2022-10-29T23:31:25.727Z,13.55
2022-10-29T23:33:54.692Z,11.65
2022-10-29T23:36:23.488Z,13.90
2022-10-29T23:38:57.483Z,15.95
2022-10-29T23:41:25.291Z,15.20
2022-10-29T23:43:52.247Z,10.85
2022-10-29T23:48:48.622Z,17.45
2022-10-29T23:51:15.523Z,17.17
2022-10-29T23:56:10.220Z,22.50
2022-10-29T23:58:37.345Z,18.17
